Guojin 801 — 9GFQ — position and weather

sailwx.info

Track history (hours):
 
Tides and Currents Weather Stations Pressure Air Temp Water Temp Dewpoint Dewpoint Depression Visibility Wind Speed Wind Dir Waves Ship Positions

Guojin 801

Last reported at 2017-Sep-18 09:32 UTC. Time now 2017-Sep-22 02:47 UTC.
Position N 05°26' W 000°03'.

Type: Fishing. MMSI: 627389000.

Date/timePositionNaut miles runAvg speedWind from/ knotsBaromVisibWave heightAir tempDewpointWater temp
2017-Sep-18 09:32N 05°26' W 000°03'0 8.8
2017-Sep-18 09:29N 05°26' W 000°03'4 8.6
2017-Sep-18 09:00N 05°29' E 000°00'4 8.6
2017-Sep-18 08:30N 05°31' E 000°04'4 8.6
2017-Sep-18 08:00N 05°34' E 000°07'4 8.0
2017-Sep-18 07:30N 05°37' E 000°10'1 2.3
2017-Sep-18 07:00N 05°37' E 000°11'5 0.3
2017-Sep-17 16:44N 05°40' E 000°15'1 4.0
2017-Sep-17 16:30N 05°39' E 000°15'2 4.1
2017-Sep-17 16:00N 05°38' E 000°13'2 4.0
2017-Sep-17 15:30N 05°38' E 000°11'2 4.1
2017-Sep-17 15:00N 05°37' E 000°09'5 9.3
2017-Sep-17 14:30N 05°36' E 000°04'3 4.7
2017-Sep-17 13:52N 05°36' E 000°01'0 0.0
2017-Sep-17 13:31N 05°36' E 000°01'0 0.0
2017-Sep-17 13:00N 05°36' E 000°01'0 0.0
2017-Sep-17 12:30N 05°36' E 000°01'0 0.0
2017-Sep-17 12:00N 05°36' E 000°01'0 0.0
2017-Sep-17 11:30N 05°36' E 000°01'0 0.0
2017-Sep-17 11:00N 05°36' E 000°01'0 0.0
2017-Sep-17 10:29N 05°36' E 000°01'0 0.0
2017-Sep-17 10:00N 05°36' E 000°01'0 0.4
2017-Sep-17 09:31N 05°36' E 000°01'1 2.9
2017-Sep-17 09:00N 05°37' E 000°02'0 0.0
2017-Sep-17 08:30N 05°37' E 000°02'0 0.0
2017-Sep-17 08:00N 05°37' E 000°02'0 0.0
2017-Sep-17 07:30N 05°37' E 000°02'0 0.0
2017-Sep-17 07:00N 05°37' E 000°02'0 0.0
2017-Sep-17 06:29N 05°37' E 000°02'0 0.0
2017-Sep-17 05:59N 05°37' E 000°02'0 0.0
2017-Sep-17 05:28N 05°37' E 000°02'0 0.0
2017-Sep-17 04:58N 05°37' E 000°02'0 0.0
2017-Sep-17 04:30N 05°37' E 000°02'0 0.0
2017-Sep-17 04:00N 05°37' E 000°02'0 0.0
2017-Sep-17 03:30N 05°37' E 000°02'0 0.0
2017-Sep-17 03:00N 05°37' E 000°02'0 0.0
2017-Sep-17 02:28N 05°37' E 000°02'0 0.0
2017-Sep-17 01:59N 05°37' E 000°02'0 0.0
2017-Sep-17 01:30N 05°37' E 000°02'0 0.0
2017-Sep-17 01:00N 05°37' E 000°02'0 0.0
2017-Sep-17 00:30N 05°37' E 000°02'5 4.8
2017-Sep-16 23:33N 05°37' E 000°06'0 9.9
2017-Sep-16 23:30N 05°37' E 000°07'4 8.5
2017-Sep-16 23:00N 05°37' E 000°11'  
2017-Sep-14 16:46N 05°40' E 000°16'1 3.9
2017-Sep-14 16:26N 05°39' E 000°15'2 4.0
2017-Sep-14 15:59N 05°38' E 000°13'2 4.0
2017-Sep-14 15:30N 05°37' E 000°12'2 3.8
2017-Sep-14 15:00N 05°36' E 000°10'2 3.9
2017-Sep-14 14:30N 05°35' E 000°08'1 2.5
2017-Sep-14 14:00N 05°34' E 000°08'2 4.2
2017-Sep-14 13:30N 05°33' E 000°06'3 7.0
2017-Sep-14 13:00N 05°35' E 000°04'2 4.1
2017-Sep-14 12:28N 05°37' E 000°03'0 0.6
2017-Sep-14 12:00N 05°37' E 000°02'0 0.6
2017-Sep-14 11:30N 05°37' E 000°02'0 0.9
2017-Sep-14 11:00N 05°37' E 000°02'1 2.4
2017-Sep-14 10:30N 05°38' E 000°01'0 0.0
2017-Sep-14 09:59N 05°38' E 000°01'0 0.0
2017-Sep-14 09:30N 05°38' E 000°01'0 0.0
2017-Sep-14 09:00N 05°38' E 000°01'0 0.0
2017-Sep-14 08:28N 05°38' E 000°01'0 0.0
2017-Sep-14 07:58N 05°38' E 000°01'0 0.0
2017-Sep-14 07:20N 05°38' E 000°01'0 0.0
2017-Sep-14 07:00N 05°38' E 000°01'0 0.0
2017-Sep-13 23:46N 05°38' E 000°01'0 0.0
2017-Sep-13 23:30N 05°38' E 000°01'0 0.0
2017-Sep-13 16:53N 05°38' E 000°01'0 0.0
2017-Sep-13 16:29N 05°38' E 000°01'0 0.0
2017-Sep-13 15:59N 05°38' E 000°01'0 0.0
2017-Sep-13 15:28N 05°38' E 000°01'0 0.0
2017-Sep-13 15:00N 05°38' E 000°01'0 0.0
2017-Sep-13 14:30N 05°38' E 000°01'0 0.0
2017-Sep-13 14:00N 05°38' E 000°01'0 0.0
2017-Sep-13 13:30N 05°38' E 000°01'0 0.1
2017-Sep-13 13:00N 05°38' E 000°01'0 0.0
2017-Sep-13 12:30N 05°38' E 000°01'0 0.0
2017-Sep-13 12:00N 05°38' E 000°01'0 0.0
2017-Sep-13 11:29N 05°38' E 000°01'0 0.0
2017-Sep-13 11:00N 05°38' E 000°01'0 0.0
2017-Sep-13 10:30N 05°38' E 000°01'0 0.0
2017-Sep-13 09:59N 05°38' E 000°01'0 0.0
2017-Sep-13 09:28N 05°38' E 000°01'0 0.0
2017-Sep-13 08:58N 05°38' E 000°01'0 0.0
2017-Sep-13 08:30N 05°38' E 000°01'0 0.0
2017-Sep-13 08:00N 05°38' E 000°01'0 0.0
2017-Sep-13 07:30N 05°38' E 000°01'0 0.0
2017-Sep-13 07:00N 05°38' E 000°01'0 0.0
2017-Sep-13 06:29N 05°38' E 000°01'0 0.0
2017-Sep-12 20:38N 05°38' E 000°01'0 0.0
2017-Sep-12 20:29N 05°38' E 000°01'0 0.0
2017-Sep-12 19:59N 05°38' E 000°01'0 0.0
2017-Sep-12 19:29N 05°38' E 000°01'0 0.0
2017-Sep-12 19:00N 05°38' E 000°01'0 0.0
2017-Sep-12 18:29N 05°38' E 000°01'0 0.0
2017-Sep-12 17:59N 05°38' E 000°01'0 0.0
2017-Sep-12 17:29N 05°38' E 000°01'0 0.0
2017-Sep-12 16:59N 05°38' E 000°01'0 0.0
2017-Sep-12 16:30N 05°38' E 000°01'0 0.0
2017-Sep-12 16:00N 05°38' E 000°01'0 0.0
2017-Sep-12 15:30N 05°38' E 000°01'0 0.0
2017-Sep-12 15:00N 05°38' E 000°01'0 0.0
2017-Sep-12 14:28N 05°38' E 000°01'0 0.0
2017-Sep-12 13:59N 05°38' E 000°01'0 0.0
2017-Sep-12 13:30N 05°38' E 000°01'0 0.0
2017-Sep-12 13:00N 05°38' E 000°01'0 0.0
2017-Sep-12 12:29N 05°38' E 000°01'0 0.0
2017-Sep-12 11:57N 05°38' E 000°01'0 0.0
2017-Sep-12 11:29N 05°38' E 000°01'0 0.0
2017-Sep-12 10:55N 05°38' E 000°01'0 0.0
2017-Sep-12 10:30N 05°38' E 000°01'0 0.0
2017-Sep-12 09:31N 05°38' E 000°01'0 0.0
2017-Sep-12 09:28N 05°38' E 000°01'0 0.0
2017-Sep-12 08:59N 05°38' E 000°01'0 0.0
2017-Sep-12 08:29N 05°38' E 000°01'0 0.0
2017-Sep-12 07:59N 05°38' E 000°01'0 0.0
2017-Sep-12 07:30N 05°38' E 000°01'0 0.0
2017-Sep-12 07:00N 05°38' E 000°01'0 0.0
2017-Sep-12 06:28N 05°38' E 000°01'0 0.0
2017-Sep-12 06:00N 05°38' E 000°01'0 0.0
2017-Sep-12 05:27N 05°38' E 000°01'0 0.0
2017-Sep-11 21:57N 05°38' E 000°01'0 0.0
2017-Sep-11 21:30N 05°38' E 000°01'0 0.0
2017-Sep-11 20:58N 05°38' E 000°01'0 0.0
2017-Sep-11 20:28N 05°38' E 000°01'0 0.0
2017-Sep-11 19:59N 05°38' E 000°01'0 0.0
2017-Sep-11 19:30N 05°38' E 000°01'0 0.0
2017-Sep-11 18:58N 05°38' E 000°01'0 0.0
2017-Sep-11 18:30N 05°38' E 000°01'0 0.0
2017-Sep-11 18:00N 05°38' E 000°01'0 0.0
2017-Sep-11 17:30N 05°38' E 000°01'0 0.0
2017-Sep-11 16:54N 05°38' E 000°01'0 0.0
2017-Sep-11 16:28N 05°38' E 000°01'0 0.0
2017-Sep-11 15:58N 05°38' E 000°01'0 0.0
2017-Sep-11 15:28N 05°38' E 000°01'0 0.0
2017-Sep-11 14:58N 05°38' E 000°01'0 0.0
2017-Sep-11 14:28N 05°38' E 000°01'0 0.0
2017-Sep-11 13:58N 05°38' E 000°01'0 0.0
2017-Sep-11 13:23N 05°38' E 000°01'0 0.0
2017-Sep-11 12:58N 05°38' E 000°01'0 0.0
2017-Sep-11 12:28N 05°38' E 000°01'0 0.0
2017-Sep-11 12:00N 05°38' E 000°01'0 0.0
2017-Sep-11 11:29N 05°38' E 000°01'0 0.0
2017-Sep-11 11:00N 05°38' E 000°01'0 0.0
2017-Sep-11 10:28N 05°38' E 000°01'0 0.0
2017-Sep-11 09:59N 05°38' E 000°01'0 0.0
2017-Sep-11 09:30N 05°38' E 000°01'0 0.0
2017-Sep-11 08:59N 05°38' E 000°01'0 0.0
2017-Sep-11 08:30N 05°38' E 000°01'0 0.0
2017-Sep-11 08:00N 05°38' E 000°01'0 0.0
2017-Sep-11 07:30N 05°38' E 000°01'0 0.0
2017-Sep-11 06:58N 05°38' E 000°01'0 0.0
2017-Sep-11 01:38N 05°38' E 000°01'0 0.0
2017-Sep-11 01:29N 05°38' E 000°01'0 0.0
2017-Sep-10 14:47N 05°38' E 000°01'0 0.0
2017-Sep-10 13:58N 05°38' E 000°01'0 0.0
2017-Sep-10 13:28N 05°38' E 000°01'0 0.0
2017-Sep-10 13:00N 05°38' E 000°01'0 0.0
2017-Sep-10 12:30N 05°38' E 000°01'0 0.0
2017-Sep-10 12:00N 05°38' E 000°01'0 0.0
2017-Sep-10 11:27N 05°38' E 000°01'0 0.0
2017-Sep-10 11:00N 05°38' E 000°01'0 0.0
2017-Sep-10 10:30N 05°38' E 000°01'0 0.0
2017-Sep-10 10:00N 05°38' E 000°01'0 0.0
2017-Sep-10 09:30N 05°38' E 000°01'0 0.0
2017-Sep-10 09:00N 05°38' E 000°01'0 0.0
2017-Sep-10 08:30N 05°38' E 000°01'0 0.0
2017-Sep-10 08:00N 05°38' E 000°01'0 0.0
2017-Sep-10 07:30N 05°38' E 000°01'0 0.0
2017-Sep-10 06:59N 05°38' E 000°01'0 0.0
2017-Sep-09 21:53N 05°38' E 000°01'0 0.0
2017-Sep-09 21:30N 05°38' E 000°01'0 0.0
2017-Sep-09 20:59N 05°38' E 000°01'0 0.0
2017-Sep-09 17:37N 05°38' E 000°01'0 0.0
2017-Sep-09 17:28N 05°38' E 000°01'0 0.0
2017-Sep-09 16:58N 05°38' E 000°01'0 0.0
2017-Sep-09 16:28N 05°38' E 000°01'0 0.0
2017-Sep-09 15:58N 05°38' E 000°01'0 0.0
2017-Sep-09 15:28N 05°38' E 000°01'0 0.0
2017-Sep-09 15:00N 05°38' E 000°01'0 0.0
2017-Sep-09 14:30N 05°38' E 000°01'0 0.0
2017-Sep-09 14:00N 05°38' E 000°01'0 0.0
2017-Sep-09 13:29N 05°38' E 000°01'0 0.0
2017-Sep-09 12:59N 05°38' E 000°01'0 0.0
2017-Sep-09 12:29N 05°38' E 000°01'0 0.0
2017-Sep-09 11:59N 05°38' E 000°01'0 0.0
2017-Sep-09 11:29N 05°38' E 000°01'0 0.0
2017-Sep-09 11:00N 05°38' E 000°01'0 0.0
2017-Sep-09 10:31N 05°38' E 000°01'0 0.0
2017-Sep-09 10:00N 05°38' E 000°01'0 0.0
2017-Sep-09 09:30N 05°38' E 000°01'0 0.0
2017-Sep-09 09:00N 05°38' E 000°01'0 0.0
2017-Sep-09 08:30N 05°38' E 000°01'0 0.0
2017-Sep-09 08:00N 05°38' E 000°01'0 0.0
2017-Sep-08 17:27N 05°38' E 000°01'0 0.0
2017-Sep-08 17:00N 05°38' E 000°01'0 0.0
2017-Sep-08 16:30N 05°38' E 000°01'0 0.0
2017-Sep-08 16:00N 05°38' E 000°01'0 0.0
2017-Sep-08 15:30N 05°38' E 000°01'0 0.0
2017-Sep-08 15:00N 05°38' E 000°01'0 0.0
2017-Sep-08 14:30N 05°38' E 000°01'0 0.0
2017-Sep-08 14:00N 05°38' E 000°01'0 0.0
2017-Sep-08 13:30N 05°38' E 000°01'0 0.0
2017-Sep-08 12:31N 05°38' E 000°01'0 0.1
2017-Sep-08 12:28N 05°38' E 000°01'0 0.0
2017-Sep-08 11:58N 05°38' E 000°01'0 0.0
2017-Sep-08 11:30N 05°38' E 000°01'0 0.0
2017-Sep-08 11:00N 05°38' E 000°01'0 0.0
2017-Sep-08 10:29N 05°38' E 000°01'0 0.0
2017-Sep-08 09:59N 05°38' E 000°01'  
Track history (hours):
 
Tides and Currents Weather Stations Pressure Air Temp Water Temp Dewpoint Dewpoint Depression Visibility Wind Speed Wind Dir Waves Ship Positions

Guojin 801

Last reported at 2017-Sep-18 09:32 UTC. Time now 2017-Sep-22 02:47 UTC.
Position N 05°26' W 000°03'.

Type: Fishing. MMSI: 627389000.

Date/timePositionNaut miles runAvg speedWind from/ knotsBaromVisibWave heightAir tempDewpointWater temp
2017-Sep-18 09:32N 05°26' W 000°03'0 8.8
2017-Sep-18 09:29N 05°26' W 000°03'4 8.6
2017-Sep-18 09:00N 05°29' E 000°00'4 8.6
2017-Sep-18 08:30N 05°31' E 000°04'4 8.6
2017-Sep-18 08:00N 05°34' E 000°07'4 8.0
2017-Sep-18 07:30N 05°37' E 000°10'1 2.3
2017-Sep-18 07:00N 05°37' E 000°11'5 0.3
2017-Sep-17 16:44N 05°40' E 000°15'1 4.0
2017-Sep-17 16:30N 05°39' E 000°15'2 4.1
2017-Sep-17 16:00N 05°38' E 000°13'2 4.0
2017-Sep-17 15:30N 05°38' E 000°11'2 4.1
2017-Sep-17 15:00N 05°37' E 000°09'5 9.3
2017-Sep-17 14:30N 05°36' E 000°04'3 4.7
2017-Sep-17 13:52N 05°36' E 000°01'0 0.0
2017-Sep-17 13:31N 05°36' E 000°01'0 0.0
2017-Sep-17 13:00N 05°36' E 000°01'0 0.0
2017-Sep-17 12:30N 05°36' E 000°01'0 0.0
2017-Sep-17 12:00N 05°36' E 000°01'0 0.0
2017-Sep-17 11:30N 05°36' E 000°01'0 0.0
2017-Sep-17 11:00N 05°36' E 000°01'0 0.0
2017-Sep-17 10:29N 05°36' E 000°01'0 0.0
2017-Sep-17 10:00N 05°36' E 000°01'0 0.4
2017-Sep-17 09:31N 05°36' E 000°01'1 2.9
2017-Sep-17 09:00N 05°37' E 000°02'0 0.0
2017-Sep-17 08:30N 05°37' E 000°02'0 0.0
2017-Sep-17 08:00N 05°37' E 000°02'0 0.0
2017-Sep-17 07:30N 05°37' E 000°02'0 0.0
2017-Sep-17 07:00N 05°37' E 000°02'0 0.0
2017-Sep-17 06:29N 05°37' E 000°02'0 0.0
2017-Sep-17 05:59N 05°37' E 000°02'0 0.0
2017-Sep-17 05:28N 05°37' E 000°02'0 0.0
2017-Sep-17 04:58N 05°37' E 000°02'0 0.0
2017-Sep-17 04:30N 05°37' E 000°02'0 0.0
2017-Sep-17 04:00N 05°37' E 000°02'0 0.0
2017-Sep-17 03:30N 05°37' E 000°02'0 0.0
2017-Sep-17 03:00N 05°37' E 000°02'0 0.0
2017-Sep-17 02:28N 05°37' E 000°02'0 0.0
2017-Sep-17 01:59N 05°37' E 000°02'0 0.0
2017-Sep-17 01:30N 05°37' E 000°02'0 0.0
2017-Sep-17 01:00N 05°37' E 000°02'0 0.0
2017-Sep-17 00:30N 05°37' E 000°02'5 4.8
2017-Sep-16 23:33N 05°37' E 000°06'0 9.9
2017-Sep-16 23:30N 05°37' E 000°07'4 8.5
2017-Sep-16 23:00N 05°37' E 000°11'  
2017-Sep-14 16:46N 05°40' E 000°16'1 3.9
2017-Sep-14 16:26N 05°39' E 000°15'2 4.0
2017-Sep-14 15:59N 05°38' E 000°13'2 4.0
2017-Sep-14 15:30N 05°37' E 000°12'2 3.8
2017-Sep-14 15:00N 05°36' E 000°10'2 3.9
2017-Sep-14 14:30N 05°35' E 000°08'1 2.5
2017-Sep-14 14:00N 05°34' E 000°08'2 4.2
2017-Sep-14 13:30N 05°33' E 000°06'3 7.0
2017-Sep-14 13:00N 05°35' E 000°04'2 4.1
2017-Sep-14 12:28N 05°37' E 000°03'0 0.6
2017-Sep-14 12:00N 05°37' E 000°02'0 0.6
2017-Sep-14 11:30N 05°37' E 000°02'0 0.9
2017-Sep-14 11:00N 05°37' E 000°02'1 2.4
2017-Sep-14 10:30N 05°38' E 000°01'0 0.0
2017-Sep-14 09:59N 05°38' E 000°01'0 0.0
2017-Sep-14 09:30N 05°38' E 000°01'0 0.0
2017-Sep-14 09:00N 05°38' E 000°01'0 0.0
2017-Sep-14 08:28N 05°38' E 000°01'0 0.0
2017-Sep-14 07:58N 05°38' E 000°01'0 0.0
2017-Sep-14 07:20N 05°38' E 000°01'0 0.0
2017-Sep-14 07:00N 05°38' E 000°01'0 0.0
2017-Sep-13 23:46N 05°38' E 000°01'0 0.0
2017-Sep-13 23:30N 05°38' E 000°01'0 0.0
2017-Sep-13 16:53N 05°38' E 000°01'0 0.0
2017-Sep-13 16:29N 05°38' E 000°01'0 0.0
2017-Sep-13 15:59N 05°38' E 000°01'0 0.0
2017-Sep-13 15:28N 05°38' E 000°01'0 0.0
2017-Sep-13 15:00N 05°38' E 000°01'0 0.0
2017-Sep-13 14:30N 05°38' E 000°01'0 0.0
2017-Sep-13 14:00N 05°38' E 000°01'0 0.0
2017-Sep-13 13:30N 05°38' E 000°01'0 0.1
2017-Sep-13 13:00N 05°38' E 000°01'0 0.0
2017-Sep-13 12:30N 05°38' E 000°01'0 0.0
2017-Sep-13 12:00N 05°38' E 000°01'0 0.0
2017-Sep-13 11:29N 05°38' E 000°01'0 0.0
2017-Sep-13 11:00N 05°38' E 000°01'0 0.0
2017-Sep-13 10:30N 05°38' E 000°01'0 0.0
2017-Sep-13 09:59N 05°38' E 000°01'0 0.0
2017-Sep-13 09:28N 05°38' E 000°01'0 0.0
2017-Sep-13 08:58N 05°38' E 000°01'0 0.0
2017-Sep-13 08:30N 05°38' E 000°01'0 0.0
2017-Sep-13 08:00N 05°38' E 000°01'0 0.0
2017-Sep-13 07:30N 05°38' E 000°01'0 0.0
2017-Sep-13 07:00N 05°38' E 000°01'0 0.0
2017-Sep-13 06:29N 05°38' E 000°01'0 0.0
2017-Sep-12 20:38N 05°38' E 000°01'0 0.0
2017-Sep-12 20:29N 05°38' E 000°01'0 0.0
2017-Sep-12 19:59N 05°38' E 000°01'0 0.0
2017-Sep-12 19:29N 05°38' E 000°01'0 0.0
2017-Sep-12 19:00N 05°38' E 000°01'0 0.0
2017-Sep-12 18:29N 05°38' E 000°01'0 0.0
2017-Sep-12 17:59N 05°38' E 000°01'0 0.0
2017-Sep-12 17:29N 05°38' E 000°01'0 0.0
2017-Sep-12 16:59N 05°38' E 000°01'0 0.0
2017-Sep-12 16:30N 05°38' E 000°01'0 0.0
2017-Sep-12 16:00N 05°38' E 000°01'0 0.0
2017-Sep-12 15:30N 05°38' E 000°01'0 0.0
2017-Sep-12 15:00N 05°38' E 000°01'0 0.0
2017-Sep-12 14:28N 05°38' E 000°01'0 0.0
2017-Sep-12 13:59N 05°38' E 000°01'0 0.0
2017-Sep-12 13:30N 05°38' E 000°01'0 0.0
2017-Sep-12 13:00N 05°38' E 000°01'0 0.0
2017-Sep-12 12:29N 05°38' E 000°01'0 0.0
2017-Sep-12 11:57N 05°38' E 000°01'0 0.0
2017-Sep-12 11:29N 05°38' E 000°01'0 0.0
2017-Sep-12 10:55N 05°38' E 000°01'0 0.0
2017-Sep-12 10:30N 05°38' E 000°01'0 0.0
2017-Sep-12 09:31N 05°38' E 000°01'0 0.0
2017-Sep-12 09:28N 05°38' E 000°01'0 0.0
2017-Sep-12 08:59N 05°38' E 000°01'0 0.0
2017-Sep-12 08:29N 05°38' E 000°01'0 0.0
2017-Sep-12 07:59N 05°38' E 000°01'0 0.0
2017-Sep-12 07:30N 05°38' E 000°01'0 0.0
2017-Sep-12 07:00N 05°38' E 000°01'0 0.0
2017-Sep-12 06:28N 05°38' E 000°01'0 0.0
2017-Sep-12 06:00N 05°38' E 000°01'0 0.0
2017-Sep-12 05:27N 05°38' E 000°01'0 0.0
2017-Sep-11 21:57N 05°38' E 000°01'0 0.0
2017-Sep-11 21:30N 05°38' E 000°01'0 0.0
2017-Sep-11 20:58N 05°38' E 000°01'0 0.0
2017-Sep-11 20:28N 05°38' E 000°01'0 0.0
2017-Sep-11 19:59N 05°38' E 000°01'0 0.0
2017-Sep-11 19:30N 05°38' E 000°01'0 0.0
2017-Sep-11 18:58N 05°38' E 000°01'0 0.0
2017-Sep-11 18:30N 05°38' E 000°01'0 0.0
2017-Sep-11 18:00N 05°38' E 000°01'0 0.0
2017-Sep-11 17:30N 05°38' E 000°01'0 0.0
2017-Sep-11 16:54N 05°38' E 000°01'0 0.0
2017-Sep-11 16:28N 05°38' E 000°01'0 0.0
2017-Sep-11 15:58N 05°38' E 000°01'0 0.0
2017-Sep-11 15:28N 05°38' E 000°01'0 0.0
2017-Sep-11 14:58N 05°38' E 000°01'0 0.0
2017-Sep-11 14:28N 05°38' E 000°01'0 0.0
2017-Sep-11 13:58N 05°38' E 000°01'0 0.0
2017-Sep-11 13:23N 05°38' E 000°01'0 0.0
2017-Sep-11 12:58N 05°38' E 000°01'0 0.0
2017-Sep-11 12:28N 05°38' E 000°01'0 0.0
2017-Sep-11 12:00N 05°38' E 000°01'0 0.0
2017-Sep-11 11:29N 05°38' E 000°01'0 0.0
2017-Sep-11 11:00N 05°38' E 000°01'0 0.0
2017-Sep-11 10:28N 05°38' E 000°01'0 0.0
2017-Sep-11 09:59N 05°38' E 000°01'0 0.0
2017-Sep-11 09:30N 05°38' E 000°01'0 0.0
2017-Sep-11 08:59N 05°38' E 000°01'0 0.0
2017-Sep-11 08:30N 05°38' E 000°01'0 0.0
2017-Sep-11 08:00N 05°38' E 000°01'0 0.0
2017-Sep-11 07:30N 05°38' E 000°01'0 0.0
2017-Sep-11 06:58N 05°38' E 000°01'0 0.0
2017-Sep-11 01:38N 05°38' E 000°01'0 0.0
2017-Sep-11 01:29N 05°38' E 000°01'0 0.0
2017-Sep-10 14:47N 05°38' E 000°01'0 0.0
2017-Sep-10 13:58N 05°38' E 000°01'0 0.0
2017-Sep-10 13:28N 05°38' E 000°01'0 0.0
2017-Sep-10 13:00N 05°38' E 000°01'0 0.0
2017-Sep-10 12:30N 05°38' E 000°01'0 0.0
2017-Sep-10 12:00N 05°38' E 000°01'0 0.0
2017-Sep-10 11:27N 05°38' E 000°01'0 0.0
2017-Sep-10 11:00N 05°38' E 000°01'0 0.0
2017-Sep-10 10:30N 05°38' E 000°01'0 0.0
2017-Sep-10 10:00N 05°38' E 000°01'0 0.0
2017-Sep-10 09:30N 05°38' E 000°01'0 0.0
2017-Sep-10 09:00N 05°38' E 000°01'0 0.0
2017-Sep-10 08:30N 05°38' E 000°01'0 0.0
2017-Sep-10 08:00N 05°38' E 000°01'0 0.0
2017-Sep-10 07:30N 05°38' E 000°01'0 0.0
2017-Sep-10 06:59N 05°38' E 000°01'0 0.0
2017-Sep-09 21:53N 05°38' E 000°01'0 0.0
2017-Sep-09 21:30N 05°38' E 000°01'0 0.0
2017-Sep-09 20:59N 05°38' E 000°01'0 0.0
2017-Sep-09 17:37N 05°38' E 000°01'0 0.0
2017-Sep-09 17:28N 05°38' E 000°01'0 0.0
2017-Sep-09 16:58N 05°38' E 000°01'0 0.0
2017-Sep-09 16:28N 05°38' E 000°01'0 0.0
2017-Sep-09 15:58N 05°38' E 000°01'0 0.0
2017-Sep-09 15:28N 05°38' E 000°01'0 0.0
2017-Sep-09 15:00N 05°38' E 000°01'0 0.0
2017-Sep-09 14:30N 05°38' E 000°01'0 0.0
2017-Sep-09 14:00N 05°38' E 000°01'0 0.0
2017-Sep-09 13:29N 05°38' E 000°01'0 0.0
2017-Sep-09 12:59N 05°38' E 000°01'0 0.0
2017-Sep-09 12:29N 05°38' E 000°01'0 0.0
2017-Sep-09 11:59N 05°38' E 000°01'0 0.0
2017-Sep-09 11:29N 05°38' E 000°01'0 0.0
2017-Sep-09 11:00N 05°38' E 000°01'0 0.0
2017-Sep-09 10:31N 05°38' E 000°01'0 0.0
2017-Sep-09 10:00N 05°38' E 000°01'0 0.0
2017-Sep-09 09:30N 05°38' E 000°01'0 0.0
2017-Sep-09 09:00N 05°38' E 000°01'0 0.0
2017-Sep-09 08:30N 05°38' E 000°01'0 0.0
2017-Sep-09 08:00N 05°38' E 000°01'0 0.0
2017-Sep-08 17:27N 05°38' E 000°01'0 0.0
2017-Sep-08 17:00N 05°38' E 000°01'0 0.0
2017-Sep-08 16:30N 05°38' E 000°01'0 0.0
2017-Sep-08 16:00N 05°38' E 000°01'0 0.0
2017-Sep-08 15:30N 05°38' E 000°01'0 0.0
2017-Sep-08 15:00N 05°38' E 000°01'0 0.0
2017-Sep-08 14:30N 05°38' E 000°01'0 0.0
2017-Sep-08 14:00N 05°38' E 000°01'0 0.0
2017-Sep-08 13:30N 05°38' E 000°01'0 0.0
2017-Sep-08 12:31N 05°38' E 000°01'0 0.1
2017-Sep-08 12:28N 05°38' E 000°01'0 0.0
2017-Sep-08 11:58N 05°38' E 000°01'0 0.0
2017-Sep-08 11:30N 05°38' E 000°01'0 0.0
2017-Sep-08 11:00N 05°38' E 000°01'0 0.0
2017-Sep-08 10:29N 05°38' E 000°01'0 0.0
2017-Sep-08 09:59N 05°38' E 000°01'  

Dump ship's entire track history